Time;durP1;ratioP1;P1;durP2;ratioP2;P2;SDS_P1;SDS_P2;PMS_P1;PMS_P2;Temp;Humidity;BMP_temperature;BMP_pressure;BME280_temperature;BME280_humidity;BME280_pressure;Samples;Min_cycle;Max_cycle;Signal;HPM_P1;HPM_P2
2022/10/20 00:01:54;;;;;;;8.00;4.20;;;8.10;1.00;;;;;;5044319;28;20588;-60
2022/10/20 00:04:19;;;;;;;5.20;3.67;;;8.10;1.00;;;;;;5045430;28;20491;-61
2022/10/20 00:06:45;;;;;;;4.10;3.70;;;8.10;1.00;;;;;;5049040;28;20208;-60
2022/10/20 00:09:11;;;;;;;8.17;3.80;;;8.10;1.00;;;;;;5046331;28;20189;-58
2022/10/20 00:11:36;;;;;;;11.70;5.30;;;8.00;1.00;;;;;;5047780;28;20534;-60
2022/10/20 00:14:03;;;;;;;6.10;4.00;;;8.10;1.00;;;;;;5041550;28;20277;-60
2022/10/20 00:16:30;;;;;;;7.33;4.40;;;8.10;1.00;;;;;;5036410;28;20298;-60
2022/10/20 00:18:57;;;;;;;7.53;4.60;;;8.10;1.00;;;;;;5049724;28;20478;-60
2022/10/20 00:21:25;;;;;;;4.60;4.23;;;8.00;1.00;;;;;;5043628;28;20977;-60
2022/10/20 00:23:52;;;;;;;4.93;4.53;;;8.00;1.00;;;;;;5048492;28;20504;-61
2022/10/20 00:26:23;;;;;;;4.57;3.50;;;8.10;1.00;;;;;;5047371;28;20431;-59
2022/10/20 00:28:49;;;;;;;6.60;4.13;;;8.00;1.00;;;;;;5041951;28;20967;-60
2022/10/20 00:31:17;;;;;;;4.43;4.00;;;8.10;1.00;;;;;;5044917;28;20493;-61
2022/10/20 00:33:42;;;;;;;4.50;4.10;;;8.00;1.00;;;;;;5044048;28;20450;-60
2022/10/20 00:36:12;;;;;;;4.17;3.77;;;8.00;1.00;;;;;;5045205;28;20457;-59
2022/10/20 00:38:38;;;;;;;4.10;3.70;;;8.00;1.00;;;;;;5046529;28;20221;-60
2022/10/20 00:41:03;;;;;;;5.27;3.87;;;8.00;1.00;;;;;;5048374;28;20490;-61
2022/10/20 00:43:44;;;;;;;7.27;4.37;;;8.00;1.00;;;;;;5044695;28;20643;-56
2022/10/20 00:46:13;;;;;;;4.50;4.00;;;7.90;1.00;;;;;;5047779;28;20496;-54
2022/10/20 00:48:40;;;;;;;4.77;4.07;;;7.90;1.00;;;;;;5051570;28;20441;-53
2022/10/20 00:51:06;;;;;;;4.50;4.00;;;8.00;1.00;;;;;;5046766;28;20983;-56
2022/10/20 00:53:33;;;;;;;4.70;4.30;;;8.10;1.00;;;;;;5052934;28;20508;-55
2022/10/20 00:55:59;;;;;;;4.93;4.13;;;8.00;1.00;;;;;;5050107;28;20317;-55
2022/10/20 00:58:26;;;;;;;5.03;4.47;;;8.00;1.00;;;;;;5050289;28;20539;-54
2022/10/20 01:00:56;;;;;;;10.63;4.47;;;8.10;1.00;;;;;;5050972;28;20438;-53
2022/10/20 01:03:27;;;;;;;5.53;5.03;;;8.00;1.00;;;;;;5048664;28;20485;-54
2022/10/20 01:05:53;;;;;;;5.83;4.30;;;8.20;1.00;;;;;;5051137;28;20437;-56
2022/10/20 01:08:18;;;;;;;6.27;4.70;;;8.30;1.00;;;;;;5050578;28;20772;-55
2022/10/20 01:11:05;;;;;;;6.67;4.80;;;8.40;1.00;;;;;;5047969;28;20190;-57
2022/10/20 01:14:08;;;;;;;4.60;4.20;;;8.40;1.00;;;;;;5045379;28;20310;-56
2022/10/20 01:17:01;;;;;;;4.67;4.27;;;8.50;1.00;;;;;;5050568;28;20469;-57
2022/10/20 01:19:45;;;;;;;6.73;4.53;;;8.50;1.00;;;;;;5051951;28;20416;-56
2022/10/20 01:22:29;;;;;;;5.83;4.80;;;8.50;1.00;;;;;;5047843;28;20443;-53
2022/10/20 01:25:16;;;;;;;5.20;4.70;;;8.60;1.00;;;;;;5051549;28;20543;-54
2022/10/20 01:27:50;;;;;;;4.50;4.10;;;8.60;1.00;;;;;;5045243;28;20453;-56
2022/10/20 01:30:18;;;;;;;5.83;4.40;;;8.60;1.00;;;;;;5050397;28;20485;-54
2022/10/20 01:33:08;;;;;;;4.30;3.90;;;8.60;1.00;;;;;;5048418;28;20442;-55
2022/10/20 01:35:53;;;;;;;6.20;5.60;;;8.60;1.00;;;;;;5051381;28;20487;-55
2022/10/20 01:38:33;;;;;;;7.00;4.60;;;8.60;1.00;;;;;;5046236;28;20442;-53
2022/10/20 01:41:09;;;;;;;5.13;4.63;;;8.70;1.00;;;;;;5044692;28;20473;-57
2022/10/20 01:43:37;;;;;;;4.57;4.10;;;8.60;1.00;;;;;;5045751;28;20488;-53
2022/10/20 01:46:05;;;;;;;4.43;4.03;;;8.60;1.00;;;;;;5051883;28;20524;-55
2022/10/20 01:48:34;;;;;;;5.97;4.77;;;8.60;1.00;;;;;;5056891;28;20404;-55
2022/10/20 01:51:01;;;;;;;6.13;4.37;;;8.60;1.00;;;;;;5050807;28;20517;-56
2022/10/20 01:53:27;;;;;;;6.83;4.57;;;8.60;1.00;;;;;;5049717;28;20481;-60
2022/10/20 01:55:55;;;;;;;7.40;5.00;;;8.60;1.00;;;;;;5045743;28;20523;-62
2022/10/20 01:58:47;;;;;;;4.83;4.43;;;8.60;1.00;;;;;;5045350;28;20183;-61
2022/10/20 02:01:52;;;;;;;11.23;5.47;;;8.70;1.00;;;;;;5058516;28;20454;-61
2022/10/20 02:04:29;;;;;;;8.50;4.83;;;8.70;1.00;;;;;;5048098;28;20457;-61
2022/10/20 02:07:10;;;;;;;5.97;5.10;;;8.60;1.00;;;;;;5045176;28;20479;-60
2022/10/20 02:09:48;;;;;;;13.43;5.33;;;8.60;1.00;;;;;;5040477;28;20454;-61
2022/10/20 02:12:26;;;;;;;5.70;5.07;;;8.60;1.00;;;;;;5046308;28;20453;-61
2022/10/20 02:14:54;;;;;;;7.57;5.30;;;8.60;1.00;;;;;;5048701;28;20452;-60
2022/10/20 02:17:20;;;;;;;7.57;5.03;;;8.70;1.00;;;;;;5048856;28;20549;-61
2022/10/20 02:19:48;;;;;;;5.30;4.80;;;8.60;1.00;;;;;;5053594;28;21063;-61
2022/10/20 02:22:15;;;;;;;6.83;5.20;;;8.60;1.00;;;;;;5050792;28;20989;-60
2022/10/20 02:24:42;;;;;;;7.43;5.53;;;8.60;1.00;;;;;;5044475;28;20535;-60
2022/10/20 02:27:13;;;;;;;5.77;5.03;;;8.50;1.00;;;;;;5048942;28;20467;-60
2022/10/20 02:29:44;;;;;;;7.53;5.53;;;8.50;1.00;;;;;;5047304;28;20450;-60
2022/10/20 02:32:12;;;;;;;6.67;5.97;;;8.40;1.00;;;;;;5050322;28;20449;-61
2022/10/20 02:34:38;;;;;;;6.70;5.20;;;8.40;1.00;;;;;;5048800;28;20427;-60
2022/10/20 02:37:03;;;;;;;5.37;4.87;;;8.30;1.00;;;;;;5048562;28;20564;-61
2022/10/20 02:39:29;;;;;;;6.20;5.37;;;8.30;1.00;;;;;;5049477;28;20454;-61
2022/10/20 02:41:54;;;;;;;5.67;5.17;;;8.20;1.00;;;;;;5047527;28;20194;-61
2022/10/20 02:44:23;;;;;;;8.40;5.13;;;8.10;1.00;;;;;;5049655;28;20243;-59
2022/10/20 02:46:48;;;;;;;4.87;4.27;;;8.00;1.00;;;;;;5043782;28;20191;-60
2022/10/20 02:49:14;;;;;;;5.50;5.00;;;8.00;1.00;;;;;;5050101;28;20500;-58
2022/10/20 02:51:39;;;;;;;6.70;5.17;;;7.70;1.00;;;;;;5046743;28;20252;-58
2022/10/20 02:54:05;;;;;;;7.57;5.50;;;7.70;1.00;;;;;;5043518;28;20194;-58
2022/10/20 02:56:30;;;;;;;7.83;5.03;;;7.80;1.00;;;;;;5050465;28;20188;-60
2022/10/20 02:58:56;;;;;;;7.33;5.10;;;7.70;1.00;;;;;;5046385;28;20200;-59
2022/10/20 03:01:23;;;;;;;5.63;5.00;;;7.70;1.00;;;;;;5050157;28;20186;-59
2022/10/20 03:03:49;;;;;;;5.60;4.93;;;7.70;1.00;;;;;;5047840;28;20710;-60
2022/10/20 03:06:15;;;;;;;6.90;5.50;;;7.60;1.00;;;;;;5044540;28;20474;-58
2022/10/20 03:08:41;;;;;;;7.20;4.57;;;7.50;1.00;;;;;;5045978;28;20539;-59
2022/10/20 03:11:07;;;;;;;11.07;5.63;;;7.60;1.00;;;;;;5046237;28;21024;-59
2022/10/20 03:13:33;;;;;;;4.77;4.33;;;7.50;1.00;;;;;;5049943;28;20460;-59
2022/10/20 03:16:00;;;;;;;7.17;5.00;;;7.40;1.00;;;;;;5047126;28;20443;-59
2022/10/20 03:18:26;;;;;;;5.47;4.73;;;7.50;1.00;;;;;;5049421;28;20355;-59
2022/10/20 03:20:54;;;;;;;6.20;5.37;;;7.40;1.00;;;;;;5045718;28;20532;-60
2022/10/20 03:23:20;;;;;;;6.20;5.13;;;7.50;1.00;;;;;;5047839;28;20310;-59
2022/10/20 03:25:46;;;;;;;5.00;4.50;;;7.40;1.00;;;;;;5048786;28;21032;-58
2022/10/20 03:28:12;;;;;;;5.80;5.27;;;7.50;1.00;;;;;;5055926;28;20538;-60
2022/10/20 03:30:37;;;;;;;6.47;5.47;;;7.50;1.00;;;;;;5049360;28;20450;-59
2022/10/20 03:33:03;;;;;;;6.80;5.07;;;7.50;1.00;;;;;;5042495;28;20198;-60
2022/10/20 03:35:29;;;;;;;5.77;5.17;;;7.50;1.00;;;;;;5043996;28;20270;-60
2022/10/20 03:37:54;;;;;;;6.77;5.10;;;7.50;1.00;;;;;;5046260;28;20538;-60
2022/10/20 03:40:20;;;;;;;5.00;4.30;;;7.50;1.00;;;;;;5044195;28;20512;-59
2022/10/20 03:42:45;;;;;;;8.27;5.50;;;7.50;1.00;;;;;;5049501;28;20200;-58
2022/10/20 03:45:11;;;;;;;6.53;5.60;;;7.50;1.00;;;;;;5047666;28;20226;-60
2022/10/20 03:47:36;;;;;;;5.87;5.27;;;7.50;1.00;;;;;;5043986;28;20208;-59
2022/10/20 03:50:03;;;;;;;6.00;5.27;;;7.40;1.00;;;;;;5049965;28;20180;-59
2022/10/20 03:52:29;;;;;;;5.30;4.80;;;7.30;1.00;;;;;;5042574;28;20556;-59
2022/10/20 03:54:55;;;;;;;7.47;5.90;;;7.30;1.00;;;;;;5046462;28;20452;-60
2022/10/20 03:57:21;;;;;;;5.70;4.37;;;7.20;1.00;;;;;;5048001;28;20477;-63
2022/10/20 03:59:46;;;;;;;6.70;4.57;;;7.10;1.00;;;;;;5046669;28;20210;-61
2022/10/20 04:02:35;;;;;;;5.63;4.80;;;7.10;1.00;;;;;;5047683;28;20559;-61
2022/10/20 04:05:02;;;;;;;5.53;5.03;;;6.90;1.00;;;;;;5048420;28;20195;-54
2022/10/20 04:07:27;;;;;;;9.87;5.90;;;6.80;1.00;;;;;;5043992;28;20533;-56
2022/10/20 04:09:53;;;;;;;10.07;5.50;;;6.80;1.00;;;;;;5048837;28;20458;-57
2022/10/20 04:12:19;;;;;;;6.23;5.23;;;6.70;1.00;;;;;;5048133;28;20187;-56
2022/10/20 04:14:44;;;;;;;8.17;6.03;;;9.60;1.00;;;;;;5043092;28;20191;-56
2022/10/20 04:17:10;;;;;;;20.67;5.70;;;6.80;1.00;;;;;;5046651;28;20210;-54
2022/10/20 04:19:35;;;;;;;9.80;5.63;;;6.80;1.00;;;;;;5049296;28;20273;-53
2022/10/20 04:22:01;;;;;;;22.10;6.97;;;6.70;1.00;;;;;;5042689;28;20190;-54
2022/10/20 04:24:27;;;;;;;13.80;5.17;;;6.70;1.00;;;;;;5048343;28;20184;-56
2022/10/20 04:26:52;;;;;;;16.47;6.30;;;6.70;1.00;;;;;;5044955;28;20192;-53
2022/10/20 04:29:18;;;;;;;15.13;6.30;;;6.70;1.00;;;;;;5052362;28;20190;-54
2022/10/20 04:31:43;;;;;;;29.43;7.10;;;6.80;1.00;;;;;;5050443;28;20181;-54
2022/10/20 04:34:09;;;;;;;9.30;5.70;;;6.70;1.00;;;;;;5041849;28;20199;-54
2022/10/20 04:36:34;;;;;;;6.97;5.80;;;6.60;1.00;;;;;;5039627;28;20209;-53
2022/10/20 04:39:00;;;;;;;10.70;7.07;;;6.60;1.00;;;;;;5043512;28;20726;-54
2022/10/20 04:41:26;;;;;;;17.50;6.50;;;6.50;1.00;;;;;;5046183;28;20180;-54
2022/10/20 04:43:52;;;;;;;12.50;7.07;;;6.60;1.00;;;;;;5047401;28;20282;-54
2022/10/20 04:46:18;;;;;;;15.13;6.90;;;6.50;1.00;;;;;;5047329;28;20180;-54
2022/10/20 04:48:44;;;;;;;12.40;7.97;;;6.50;1.00;;;;;;5048996;28;20521;-55
2022/10/20 04:51:12;;;;;;;15.57;6.90;;;6.50;1.00;;;;;;5040609;28;20547;-57
2022/10/20 04:53:38;;;;;;;12.07;7.20;;;6.50;1.00;;;;;;5047033;28;20463;-58
2022/10/20 04:56:06;;;;;;;26.93;7.73;;;6.60;1.00;;;;;;5044954;28;20435;-59
2022/10/20 04:58:32;;;;;;;8.17;6.63;;;6.60;1.00;;;;;;5042317;28;20503;-58
2022/10/20 05:01:07;;;;;;;13.00;7.63;;;6.50;1.00;;;;;;5046783;28;20458;-58
2022/10/20 05:03:34;;;;;;;25.00;7.83;;;6.50;1.00;;;;;;5048825;28;20513;-59
2022/10/20 05:06:28;;;;;;;12.50;7.83;;;6.70;1.00;;;;;;5046307;28;20453;-53
2022/10/20 05:08:56;;;;;;;26.73;9.13;;;6.60;1.00;;;;;;5041869;28;20803;-55
2022/10/20 05:11:23;;;;;;;14.63;7.67;;;6.40;1.00;;;;;;5048666;28;20456;-56
2022/10/20 05:13:48;;;;;;;8.57;7.40;;;6.40;1.00;;;;;;5046120;28;20453;-54
2022/10/20 05:16:16;;;;;;;21.33;8.57;;;6.40;1.00;;;;;;5048417;28;20462;-60
2022/10/20 05:18:42;;;;;;;16.27;8.40;;;6.40;1.00;;;;;;5047343;28;20569;-59
2022/10/20 05:21:16;;;;;;;9.23;7.20;;;6.50;1.00;;;;;;5044635;28;20519;-61
2022/10/20 05:23:43;;;;;;;14.37;8.77;;;6.50;1.00;;;;;;5047236;28;20477;-60
2022/10/20 05:26:11;;;;;;;16.20;7.53;;;6.50;1.00;;;;;;5046337;28;20449;-61
2022/10/20 05:28:38;;;;;;;11.03;7.37;;;6.50;1.00;;;;;;5053457;28;20413;-60
2022/10/20 05:31:06;;;;;;;11.77;8.23;;;6.50;1.00;;;;;;5052093;28;20531;-61
2022/10/20 05:33:32;;;;;;;9.37;6.83;;;6.40;1.00;;;;;;5053959;28;20839;-61
2022/10/20 05:35:57;;;;;;;11.67;7.23;;;6.50;1.00;;;;;;5048737;28;20464;-62
2022/10/20 05:38:23;;;;;;;8.60;7.47;;;6.50;1.00;;;;;;5052334;28;20486;-62
2022/10/20 05:40:49;;;;;;;12.13;8.50;;;6.50;1.00;;;;;;5047120;28;20230;-62
2022/10/20 05:43:14;;;;;;;9.43;7.97;;;6.60;1.00;;;;;;5050799;28;20218;-61
2022/10/20 05:45:41;;;;;;;9.73;8.70;;;6.50;1.00;;;;;;5047211;28;20245;-61
2022/10/20 05:48:07;;;;;;;9.00;7.90;;;6.60;1.00;;;;;;5062515;28;20234;-61
2022/10/20 05:50:32;;;;;;;9.30;7.63;;;6.50;1.00;;;;;;5045296;28;20459;-62
2022/10/20 05:52:58;;;;;;;9.33;8.33;;;6.40;1.00;;;;;;5051616;28;20192;-61
2022/10/20 05:55:24;;;;;;;11.33;9.07;;;6.40;1.00;;;;;;5045157;28;20188;-64
2022/10/20 05:57:50;;;;;;;9.17;7.57;;;6.60;1.00;;;;;;5045562;28;20460;-61
2022/10/20 06:00:18;;;;;;;10.50;8.77;;;6.60;1.00;;;;;;5046537;28;20217;-63
2022/10/20 06:02:46;;;;;;;12.57;8.17;;;6.70;1.00;;;;;;5048152;28;20450;-62
2022/10/20 06:05:12;;;;;;;10.10;8.47;;;6.80;1.00;;;;;;5049696;28;20903;-62
2022/10/20 06:07:38;;;;;;;8.37;7.53;;;7.10;1.00;;;;;;5050317;28;20474;-62
2022/10/20 06:10:04;;;;;;;13.67;8.87;;;7.10;1.00;;;;;;5048880;28;20646;-62
2022/10/20 06:12:29;;;;;;;8.83;7.90;;;7.30;1.00;;;;;;5049924;28;20609;-62
2022/10/20 06:14:55;;;;;;;12.33;8.13;;;7.60;1.00;;;;;;5044710;28;21007;-61
2022/10/20 06:17:20;;;;;;;8.27;7.47;;;7.70;1.00;;;;;;5046688;28;20200;-62
2022/10/20 06:19:46;;;;;;;11.57;7.30;;;8.00;1.00;;;;;;5045135;28;20182;-61
2022/10/20 06:22:12;;;;;;;8.80;6.70;;;;;;;;;;5052552;28;20659;-62
2022/10/20 06:24:38;;;;;;;8.40;6.13;;;8.40;1.00;;;;;;5045736;28;20184;-61
2022/10/20 06:27:04;;;;;;;6.13;5.50;;;;;;;;;;5050352;28;20445;-61
2022/10/20 06:29:29;;;;;;;8.57;6.80;;;8.80;1.00;;;;;;5049277;28;20251;-61
2022/10/20 06:31:55;;;;;;;13.83;6.70;;;8.90;1.00;;;;;;5048179;28;20450;-63
2022/10/20 06:34:24;;;;;;;8.03;6.43;;;9.00;1.00;;;;;;5048973;28;20183;-63
2022/10/20 06:36:50;;;;;;;9.23;7.10;;;9.10;1.00;;;;;;5045255;28;20486;-62
2022/10/20 06:39:25;;;;;;;8.07;6.33;;;9.20;1.00;;;;;;5052516;28;20820;-62
2022/10/20 06:41:53;;;;;;;9.93;7.33;;;9.20;1.00;;;;;;5056670;28;20540;-62
2022/10/20 06:44:21;;;;;;;8.17;6.37;;;9.40;1.00;;;;;;5054736;28;20479;-61
2022/10/20 06:46:46;;;;;;;7.07;6.00;;;9.40;1.00;;;;;;5050186;28;20457;-61
2022/10/20 06:49:13;;;;;;;6.63;5.90;;;9.60;1.00;;;;;;5051634;28;20444;-60
2022/10/20 06:51:38;;;;;;;15.40;6.57;;;9.70;1.00;;;;;;5057042;28;20204;-60
2022/10/20 06:54:09;;;;;;;7.97;5.50;;;9.80;1.00;;;;;;5046052;28;20536;-61
2022/10/20 06:56:36;;;;;;;6.07;5.47;;;9.70;1.00;;;;;;5053494;28;20199;-61
2022/10/20 06:59:02;;;;;;;5.37;4.90;;;9.90;1.00;;;;;;5046164;28;20493;-64
2022/10/20 07:01:40;;;;;;;9.27;5.67;;;10.10;1.00;;;;;;5056442;28;20545;-64
2022/10/20 07:04:15;;;;;;;5.63;4.97;;;10.10;1.00;;;;;;5059234;28;20483;-63
2022/10/20 07:06:43;;;;;;;6.30;5.03;;;10.30;1.00;;;;;;5062151;28;20902;-64
2022/10/20 07:09:16;;;;;;;7.63;5.07;;;10.30;1.00;;;;;;5063920;28;20430;-63
2022/10/20 07:11:42;;;;;;;6.30;4.73;;;10.40;1.00;;;;;;5068697;28;20438;-64
2022/10/20 07:14:10;;;;;;;9.07;5.13;;;10.60;1.00;;;;;;5049408;28;20450;-60
2022/10/20 07:16:36;;;;;;;4.27;3.97;;;10.70;1.00;;;;;;5050062;28;20522;-61
2022/10/20 07:19:02;;;;;;;9.30;4.53;;;10.70;1.00;;;;;;5048028;28;20459;-61
2022/10/20 07:21:30;;;;;;;6.63;5.30;;;10.80;1.00;;;;;;5048705;28;20262;-60
2022/10/20 07:23:55;;;;;;;4.37;3.97;;;10.80;1.00;;;;;;5051954;28;20556;-60
2022/10/20 07:26:24;;;;;;;7.23;4.00;;;10.80;1.00;;;;;;5056920;28;20512;-60
2022/10/20 07:28:52;;;;;;;11.43;4.47;;;11.00;1.00;;;;;;5062834;28;20182;-60
2022/10/20 07:31:25;;;;;;;4.43;4.00;;;11.20;1.00;;;;;;5046660;28;20447;-61
2022/10/20 07:33:52;;;;;;;4.30;3.90;;;11.20;1.00;;;;;;5049596;28;20458;-60
2022/10/20 07:36:21;;;;;;;4.13;3.73;;;11.40;1.00;;;;;;5044968;28;20477;-61
2022/10/20 07:38:47;;;;;;;5.20;4.20;;;11.40;1.00;;;;;;5048329;28;20455;-61
2022/10/20 07:41:14;;;;;;;4.87;4.20;;;11.40;1.00;;;;;;5054307;28;20465;-60
2022/10/20 07:43:40;;;;;;;7.40;3.70;;;11.60;1.00;;;;;;5046342;28;21053;-59
2022/10/20 07:46:07;;;;;;;8.80;4.70;;;11.60;1.00;;;;;;5050076;28;20435;-60
2022/10/20 07:48:33;;;;;;;5.43;3.30;;;11.70;1.00;;;;;;5048548;28;20445;-61
2022/10/20 07:51:20;;;;;;;3.87;3.20;;;11.80;1.00;;;;;;5047275;28;20476;-60
2022/10/20 07:53:47;;;;;;;4.23;3.83;;;11.90;1.00;;;;;;5046137;28;20185;-60
2022/10/20 07:56:14;;;;;;;4.13;3.47;;;11.90;1.00;;;;;;5049793;28;20510;-61
2022/10/20 07:58:39;;;;;;;3.50;3.20;;;12.00;1.00;;;;;;5048261;28;20630;-60
2022/10/20 08:01:05;;;;;;;3.50;3.20;;;12.10;1.00;;;;;;5048661;28;20425;-61
2022/10/20 08:03:31;;;;;;;4.07;3.10;;;12.20;1.00;;;;;;5047187;28;21112;-61
2022/10/20 08:05:57;;;;;;;5.20;3.10;;;12.30;1.00;;;;;;5049040;28;20650;-60
2022/10/20 08:08:23;;;;;;;5.90;3.57;;;12.50;1.00;;;;;;5047697;28;20496;-60
2022/10/20 08:10:48;;;;;;;6.10;3.70;;;12.50;1.00;;;;;;5045900;28;20210;-61
2022/10/20 08:13:14;;;;;;;4.17;3.53;;;12.50;1.00;;;;;;5048358;28;20642;-60
2022/10/20 08:15:39;;;;;;;4.90;3.47;;;12.60;1.00;;;;;;5047467;28;20629;-61
2022/10/20 08:18:05;;;;;;;4.50;3.53;;;12.70;1.00;;;;;;5046082;28;20322;-60
2022/10/20 08:20:31;;;;;;;6.50;3.67;;;12.70;1.00;;;;;;5047313;28;20279;-60
2022/10/20 08:22:57;;;;;;;4.90;3.23;;;12.90;1.00;;;;;;5047186;28;20569;-60
2022/10/20 08:25:23;;;;;;;6.20;3.80;;;12.90;1.00;;;;;;5046625;28;20597;-61
2022/10/20 08:27:48;;;;;;;4.40;3.77;;;13.00;1.00;;;;;;5047860;28;20428;-60
2022/10/20 08:30:14;;;;;;;5.70;4.00;;;13.00;1.00;;;;;;5047575;28;20445;-60
2022/10/20 08:32:40;;;;;;;5.20;3.90;;;13.10;1.00;;;;;;5048094;28;20202;-60
2022/10/20 08:35:06;;;;;;;4.80;3.40;;;13.20;1.00;;;;;;5047563;28;20451;-61
2022/10/20 08:37:32;;;;;;;4.80;2.97;;;13.20;1.00;;;;;;5049097;28;20215;-60
2022/10/20 08:39:58;;;;;;;3.77;3.47;;;13.20;1.00;;;;;;5048832;28;20445;-61
2022/10/20 08:42:24;;;;;;;5.57;3.97;;;13.20;1.00;;;;;;5047140;28;20452;-60
2022/10/20 08:44:51;;;;;;;3.57;3.27;;;13.30;1.00;;;;;;5044122;28;20223;-60
2022/10/20 08:47:23;;;;;;;7.57;3.13;;;13.30;1.00;;;;;;5047930;28;20775;-60
2022/10/20 08:49:49;;;;;;;3.90;3.50;;;13.30;1.00;;;;;;5045703;28;20437;-60
2022/10/20 08:52:16;;;;;;;3.10;2.80;;;13.40;1.00;;;;;;5048362;28;20770;-60
2022/10/20 08:54:42;;;;;;;4.67;4.17;;;13.50;1.00;;;;;;5042043;28;20676;-59
2022/10/20 08:57:21;;;;;;;4.20;3.50;;;13.60;1.00;;;;;;5048525;28;20516;-59
2022/10/20 08:59:51;;;;;;;4.33;3.70;;;13.60;1.00;;;;;;5048352;28;20182;-60
2022/10/20 09:02:17;;;;;;;3.73;3.30;;;13.60;1.00;;;;;;5049350;28;20531;-60
2022/10/20 09:04:51;;;;;;;5.33;3.67;;;13.70;1.00;;;;;;5051628;28;20591;-59
2022/10/20 09:07:27;;;;;;;8.00;3.37;;;13.70;1.00;;;;;;5046834;28;20190;-60
2022/10/20 09:10:16;;;;;;;6.37;3.53;;;13.80;1.00;;;;;;5047295;28;20453;-60
2022/10/20 09:12:46;;;;;;;4.33;4.00;;;13.80;1.00;;;;;;5039789;28;20858;-60
2022/10/20 09:15:15;;;;;;;5.77;3.73;;;13.80;1.00;;;;;;5046404;28;20446;-61
2022/10/20 09:17:48;;;;;;;5.20;3.50;;;13.90;1.00;;;;;;5052601;28;20439;-60
2022/10/20 09:20:21;;;;;;;4.43;3.13;;;13.80;1.00;;;;;;5044711;28;20539;-61
2022/10/20 09:22:47;;;;;;;5.07;3.57;;;13.90;1.00;;;;;;5051974;28;20466;-60
2022/10/20 09:25:19;;;;;;;4.10;3.47;;;14.00;1.00;;;;;;5045702;28;20499;-60
2022/10/20 09:27:46;;;;;;;5.20;3.50;;;14.00;1.00;;;;;;5046210;28;20962;-61
2022/10/20 09:30:16;;;;;;;7.47;3.17;;;14.00;1.00;;;;;;5047626;28;20421;-60
2022/10/20 09:32:42;;;;;;;2.80;2.60;;;14.20;1.00;;;;;;5052062;28;20946;-60
2022/10/20 09:35:28;;;;;;;4.50;3.03;;;14.20;1.00;;;;;;5050213;28;20425;-59
2022/10/20 09:38:21;;;;;;;4.60;3.57;;;14.20;1.00;;;;;;5051967;28;20443;-60
2022/10/20 09:41:14;;;;;;;3.67;3.37;;;14.20;1.00;;;;;;5050430;28;20437;-60
2022/10/20 09:43:54;;;;;;;4.30;3.00;;;14.20;1.00;;;;;;5051514;28;20595;-60
2022/10/20 09:46:24;;;;;;;3.77;3.37;;;14.30;1.00;;;;;;5071620;28;21095;-60
2022/10/20 09:48:50;;;;;;;4.40;2.90;;;14.20;1.00;;;;;;5061501;28;20759;-60
2022/10/20 09:51:27;;;;;;;4.07;3.30;;;14.30;1.00;;;;;;5051609;28;20922;-61
2022/10/20 09:53:55;;;;;;;3.60;3.30;;;14.30;1.00;;;;;;5046000;28;20445;-60
2022/10/20 09:56:26;;;;;;;6.80;3.17;;;14.50;1.00;;;;;;5055568;28;20427;-59
2022/10/20 09:58:53;;;;;;;8.33;3.43;;;14.50;1.00;;;;;;5058870;28;20769;-60
2022/10/20 10:01:19;;;;;;;5.20;3.20;;;14.60;1.00;;;;;;5053707;28;20446;-60
2022/10/20 10:03:46;;;;;;;4.70;3.30;;;14.60;1.00;;;;;;5049409;28;20441;-58
2022/10/20 10:06:35;;;;;;;3.90;2.73;;;14.50;1.00;;;;;;5051086;28;20191;-60
2022/10/20 10:09:02;;;;;;;3.33;3.03;;;14.50;1.00;;;;;;5051095;28;20463;-60
2022/10/20 10:11:33;;;;;;;5.30;4.60;;;14.60;1.00;;;;;;5045650;28;20504;-61
2022/10/20 10:13:59;;;;;;;3.43;3.13;;;14.70;1.00;;;;;;5047526;28;20505;-61
2022/10/20 10:16:25;;;;;;;3.93;3.30;;;14.70;1.00;;;;;;5051197;28;20496;-59
2022/10/20 10:19:00;;;;;;;5.17;3.63;;;14.70;1.00;;;;;;5049091;28;21039;-60
2022/10/20 10:21:29;;;;;;;3.30;2.97;;;14.70;1.00;;;;;;5044678;28;20547;-61
2022/10/20 10:24:00;;;;;;;7.33;3.17;;;14.80;1.00;;;;;;5047667;28;20478;-60
2022/10/20 10:26:46;;;;;;;4.00;3.03;;;14.90;1.00;;;;;;5050798;28;20443;-61
2022/10/20 10:29:30;;;;;;;4.80;4.30;;;15.00;1.00;;;;;;5048138;28;20417;-59
2022/10/20 10:32:15;;;;;;;6.10;3.40;;;15.10;1.00;;;;;;5048319;28;20416;-60
2022/10/20 10:35:18;;;;;;;3.10;2.90;;;15.10;1.00;;;;;;5054215;28;20925;-60
2022/10/20 10:37:45;;;;;;;6.43;2.83;;;15.10;1.00;;;;;;5067789;28;20453;-59
2022/10/20 10:40:18;;;;;;;3.37;3.07;;;15.30;1.00;;;;;;5045868;28;20984;-61
2022/10/20 10:43:06;;;;;;;3.37;3.07;;;15.30;1.00;;;;;;5050748;28;20860;-60
2022/10/20 10:45:32;;;;;;;4.20;3.10;;;15.30;1.00;;;;;;5046505;28;20460;-60
2022/10/20 10:48:04;;;;;;;5.20;3.37;;;15.30;1.00;;;;;;5048893;28;20420;-60
2022/10/20 10:50:39;;;;;;;3.70;3.27;;;15.30;1.00;;;;;;5045704;28;20279;-61
2022/10/20 10:53:19;;;;;;;5.87;3.50;;;15.40;1.00;;;;;;5047344;28;20424;-59
2022/10/20 10:56:07;;;;;;;7.30;3.10;;;15.40;1.00;;;;;;5045677;28;20440;-59
2022/10/20 10:58:45;;;;;;;4.13;3.43;;;15.40;1.00;;;;;;5048668;28;20434;-61
2022/10/20 11:01:39;;;;;;;6.43;3.70;;;15.60;1.00;;;;;;5056489;28;20463;-60
2022/10/20 11:04:22;;;;;;;4.20;3.80;;;15.50;1.00;;;;;;5044501;28;20497;-61
2022/10/20 11:07:20;;;;;;;4.87;3.37;;;15.50;1.00;;;;;;5047391;28;20745;-61
2022/10/20 11:10:06;;;;;;;3.67;3.33;;;15.50;1.00;;;;;;5044637;28;20453;-60
2022/10/20 11:12:57;;;;;;;3.63;2.90;;;15.40;1.00;;;;;;5044354;28;20457;-61
2022/10/20 11:15:50;;;;;;;4.17;3.17;;;15.50;1.00;;;;;;5049556;28;20429;-60
2022/10/20 11:18:19;;;;;;;6.63;2.70;;;15.50;1.00;;;;;;5047451;28;20451;-60
2022/10/20 11:21:14;;;;;;;3.03;2.73;;;15.50;1.00;;;;;;5044864;28;20454;-59
2022/10/20 11:24:11;;;;;;;3.97;3.03;;;15.60;1.00;;;;;;5044386;28;20475;-59
2022/10/20 11:26:45;;;;;;;5.10;3.23;;;15.80;1.00;;;;;;5046127;28;20523;-60
2022/10/20 11:29:30;;;;;;;3.73;2.80;;;15.70;1.00;;;;;;5049798;28;20449;-60
2022/10/20 11:32:29;;;;;;;4.47;3.30;;;15.60;1.00;;;;;;5048231;28;20456;-59
2022/10/20 11:35:15;;;;;;;5.07;2.97;;;15.70;1.00;;;;;;5046525;28;21054;-60
2022/10/20 11:38:13;;;;;;;3.40;3.10;;;15.80;1.00;;;;;;5049191;28;20916;-60
2022/10/20 11:40:42;;;;;;;7.80;3.37;;;15.90;1.00;;;;;;5057607;28;20912;-59
2022/10/20 11:43:34;;;;;;;3.77;3.40;;;15.90;1.00;;;;;;5044166;28;20790;-61
2022/10/20 11:46:09;;;;;;;5.90;2.90;;;16.00;1.00;;;;;;5037985;28;21128;-63
2022/10/20 11:48:40;;;;;;;3.60;2.90;;;16.20;1.00;;;;;;5047225;28;20770;-59
2022/10/20 11:51:30;;;;;;;6.80;3.40;;;16.30;1.00;;;;;;5044526;28;20895;-60
2022/10/20 11:54:21;;;;;;;6.10;3.27;;;16.20;1.00;;;;;;5044690;28;20519;-60
2022/10/20 11:56:59;;;;;;;4.70;2.80;;;16.20;1.00;;;;;;5044046;28;20448;-60
2022/10/20 12:00:11;;;;;;;5.83;2.80;;;16.40;1.00;;;;;;5047907;28;20463;-59
2022/10/20 12:03:03;;;;;;;5.23;3.30;;;16.30;1.00;;;;;;5046484;28;20489;-59
2022/10/20 12:05:44;;;;;;;6.03;3.30;;;16.30;1.00;;;;;;5049719;28;20437;-59
2022/10/20 12:08:33;;;;;;;4.93;2.83;;;16.40;1.00;;;;;;5049736;28;20404;-59
2022/10/20 12:11:08;;;;;;;4.10;3.40;;;16.40;1.00;;;;;;5049969;28;20415;-59
2022/10/20 12:14:02;;;;;;;4.27;2.90;;;16.40;1.00;;;;;;5049381;28;20679;-59
2022/10/20 12:16:52;;;;;;;3.60;2.53;;;16.50;1.00;;;;;;5048426;28;20433;-60
2022/10/20 12:19:33;;;;;;;7.13;3.50;;;16.60;1.00;;;;;;5047975;28;21012;-60
2022/10/20 12:22:12;;;;;;;6.00;3.20;;;16.40;1.00;;;;;;5045996;28;20403;-60
2022/10/20 12:25:01;;;;;;;3.20;2.90;;;16.30;1.00;;;;;;5049290;28;20443;-58
2022/10/20 12:27:27;;;;;;;3.50;3.20;;;16.20;1.00;;;;;;5042478;28;20497;-60
2022/10/20 12:30:03;;;;;;;4.87;3.43;;;16.40;1.00;;;;;;5069423;28;20405;-60
2022/10/20 12:32:53;;;;;;;5.20;3.70;;;16.40;1.00;;;;;;5055212;28;20417;-59
2022/10/20 12:35:19;;;;;;;6.13;3.50;;;16.30;1.00;;;;;;5048553;28;20512;-58
2022/10/20 12:38:01;;;;;;;4.90;3.90;;;16.30;1.00;;;;;;5057509;28;20496;-59
2022/10/20 12:40:48;;;;;;;4.60;3.50;;;16.10;1.00;;;;;;5054954;28;20580;-59
2022/10/20 12:43:27;;;;;;;6.20;3.30;;;16.20;1.00;;;;;;5049997;28;20827;-59
2022/10/20 12:45:58;;;;;;;5.30;3.90;;;16.20;1.00;;;;;;5052673;28;20532;-59
2022/10/20 12:48:24;;;;;;;4.40;3.57;;;16.20;1.00;;;;;;5051904;28;20877;-60
2022/10/20 12:50:51;;;;;;;6.80;3.40;;;16.20;1.00;;;;;;5052962;28;20597;-60
2022/10/20 12:53:17;;;;;;;4.77;3.77;;;16.20;1.00;;;;;;5068894;28;20570;-60
2022/10/20 12:56:18;;;;;;;6.70;4.20;;;16.30;1.00;;;;;;5072689;28;20793;-59
2022/10/20 12:59:23;;;;;;;4.50;4.10;;;16.30;1.00;;;;;;5050221;28;20256;-60
2022/10/20 13:02:07;;;;;;;4.40;3.67;;;16.10;1.00;;;;;;5056338;28;20477;-59
2022/10/20 13:05:07;;;;;;;5.33;4.07;;;16.10;1.00;;;;;;5051942;28;21039;-60
2022/10/20 13:07:47;;;;;;;4.17;3.43;;;16.20;1.00;;;;;;5052438;28;20457;-59
2022/10/20 13:10:33;;;;;;;5.87;4.80;;;16.10;1.00;;;;;;5051957;28;20411;-59
2022/10/20 13:13:02;;;;;;;7.60;4.50;;;16.20;1.00;;;;;;5052721;28;20408;-61
2022/10/20 13:15:34;;;;;;;6.37;4.90;;;16.30;1.00;;;;;;5063411;28;20921;-60
2022/10/20 13:18:12;;;;;;;6.83;5.40;;;16.10;1.00;;;;;;5050675;28;20925;-59
2022/10/20 13:20:56;;;;;;;6.80;5.17;;;16.20;1.00;;;;;;5052627;28;20813;-60
2022/10/20 13:23:35;;;;;;;7.67;4.93;;;16.20;1.00;;;;;;5052362;28;20439;-60
2022/10/20 13:26:24;;;;;;;5.17;4.67;;;16.10;1.00;;;;;;5051404;28;21074;-60
2022/10/20 13:28:53;;;;;;;5.90;5.00;;;16.10;1.00;;;;;;5051854;28;20430;-59